sensor_id;sensor_type;location;lat;lon;timestamp;pressure;altitude;pressure_sealevel;temperature;humidity
14343;BME280;7255;53.596;9.960;2022-12-11T00:00:33;100785.94;;;-1.48;nan
14343;BME280;7255;53.596;9.960;2022-12-11T00:02:59;100784.88;;;-1.56;nan
14343;BME280;7255;53.596;9.960;2022-12-11T00:05:27;100713.84;;;-1.57;nan
14343;BME280;7255;53.596;9.960;2022-12-11T00:07:53;100783.47;;;-1.50;nan
14343;BME280;7255;53.596;9.960;2022-12-11T00:10:19;100788.47;;;-1.57;nan
14343;BME280;7255;53.596;9.960;2022-12-11T00:12:45;100722.69;;;-1.48;nan
14343;BME280;7255;53.596;9.960;2022-12-11T00:15:12;100795.03;;;-1.33;nan
14343;BME280;7255;53.596;9.960;2022-12-11T00:17:38;100791.94;;;-1.28;nan
14343;BME280;7255;53.596;9.960;2022-12-11T00:20:05;100795.03;;;-1.33;nan
14343;BME280;7255;53.596;9.960;2022-12-11T00:22:35;100784.97;;;-1.20;nan
14343;BME280;7255;53.596;9.960;2022-12-11T00:25:01;100762.91;;;-1.46;nan
14343;BME280;7255;53.596;9.960;2022-12-11T00:27:27;100772.31;;;-1.44;nan
14343;BME280;7255;53.596;9.960;2022-12-11T00:29:54;100774.56;;;-1.49;nan
14343;BME280;7255;53.596;9.960;2022-12-11T00:32:20;100771.72;;;-1.38;nan
14343;BME280;7255;53.596;9.960;2022-12-11T00:34:46;100782.53;;;-1.31;nan
14343;BME280;7255;53.596;9.960;2022-12-11T00:37:13;100785.31;;;-1.32;nan
14343;BME280;7255;53.596;9.960;2022-12-11T00:39:40;100785.91;;;-1.39;nan
14343;BME280;7255;53.596;9.960;2022-12-11T00:42:07;100780.09;;;-1.42;nan
14343;BME280;7255;53.596;9.960;2022-12-11T00:44:34;100779.28;;;-1.52;nan
14343;BME280;7255;53.596;9.960;2022-12-11T00:47:01;100771.72;;;-1.38;nan
14343;BME280;7255;53.596;9.960;2022-12-11T00:49:28;100772.59;;;-1.47;nan
14343;BME280;7255;53.596;9.960;2022-12-11T00:51:54;100780.16;;;-1.62;nan
14343;BME280;7255;53.596;9.960;2022-12-11T00:54:20;100774.06;;;-1.62;nan
14343;BME280;7255;53.596;9.960;2022-12-11T00:56:48;100775.97;;;-1.55;nan
14343;BME280;7255;53.596;9.960;2022-12-11T00:59:14;100763.75;;;-1.46;nan
14343;BME280;7255;53.596;9.960;2022-12-11T01:01:41;100772.87;;;-1.40;nan
14343;BME280;7255;53.596;9.960;2022-12-11T01:04:07;100773.19;;;-1.53;nan
14343;BME280;7255;53.596;9.960;2022-12-11T01:06:33;100771.78;;;-1.47;nan
14343;BME280;7255;53.596;9.960;2022-12-11T01:09:00;100789.50;;;-1.40;nan
14343;BME280;7255;53.596;9.960;2022-12-11T01:11:43;100794.81;;;-1.49;nan
14343;BME280;7255;53.596;9.960;2022-12-11T01:14:11;100788.47;;;-1.57;nan
14343;BME280;7255;53.596;9.960;2022-12-11T01:16:37;100766.56;;;-1.67;nan
14343;BME280;7255;53.596;9.960;2022-12-11T01:19:04;100772.37;;;-1.53;nan
14343;BME280;7255;53.596;9.960;2022-12-11T01:21:30;100775.63;;;-1.42;nan
14343;BME280;7255;53.596;9.960;2022-12-11T01:23:56;100773.47;;;-1.56;nan
14343;BME280;7255;53.596;9.960;2022-12-11T01:26:23;100782.03;;;-1.44;nan
14343;BME280;7255;53.596;9.960;2022-12-11T01:28:50;100780.09;;;-1.42;nan
14343;BME280;7255;53.596;9.960;2022-12-11T01:31:19;100772.59;;;-1.37;nan
14343;BME280;7255;53.596;9.960;2022-12-11T01:33:46;100788.09;;;-1.34;nan
14343;BME280;7255;53.596;9.960;2022-12-11T01:36:14;100769.97;;;-1.19;nan
14343;BME280;7255;53.596;9.960;2022-12-11T01:38:42;100790.50;;;-1.13;nan
14343;BME280;7255;53.596;9.960;2022-12-11T01:41:09;100794.22;;;-1.33;nan
14343;BME280;7255;53.596;9.960;2022-12-11T01:44:00;100786.78;;;-1.58;nan
14343;BME280;7255;53.596;9.960;2022-12-11T01:46:29;100779.28;;;-1.43;nan
14343;BME280;7255;53.596;9.960;2022-12-11T01:48:57;100776.56;;;-1.61;nan
14343;BME280;7255;53.596;9.960;2022-12-11T01:51:24;100793.72;;;-1.57;nan
14343;BME280;7255;53.596;9.960;2022-12-11T01:53:55;100786.78;;;-1.48;nan
14343;BME280;7255;53.596;9.960;2022-12-11T01:56:22;100785.69;;;-1.55;nan
14343;BME280;7255;53.596;9.960;2022-12-11T01:58:52;100802.31;;;-1.55;nan
14343;BME280;7255;53.596;9.960;2022-12-11T02:01:24;100795.41;;;-1.56;nan
14343;BME280;7255;53.596;9.960;2022-12-11T02:03:55;100787.28;;;-1.34;nan
14343;BME280;7255;53.596;9.960;2022-12-11T02:06:34;100793.91;;;-1.30;nan
14343;BME280;7255;53.596;9.960;2022-12-11T02:09:02;100783.34;;;-1.30;nan
14343;BME280;7255;53.596;9.960;2022-12-11T02:11:35;100783.06;;;-1.27;nan
14343;BME280;7255;53.596;9.960;2022-12-11T02:14:10;100784.16;;;-1.20;nan
14343;BME280;7255;53.596;9.960;2022-12-11T02:16:43;100782.31;;;-1.47;nan
14343;BME280;7255;53.596;9.960;2022-12-11T02:19:21;100786.72;;;-1.38;nan
14343;BME280;7255;53.596;9.960;2022-12-11T02:21:57;100786.69;;;-1.28;nan
14343;BME280;7255;53.596;9.960;2022-12-11T02:24:31;100794.44;;;-1.27;nan
14343;BME280;7255;53.596;9.960;2022-12-11T02:27:13;100763.16;;;-1.40;nan
14343;BME280;7255;53.596;9.960;2022-12-11T02:29:48;100790.56;;;-1.23;nan
14343;BME280;7255;53.596;9.960;2022-12-11T02:32:18;100779.75;;;-1.29;nan
14343;BME280;7255;53.596;9.960;2022-12-11T02:34:51;100785.03;;;-1.29;nan
14343;BME280;7255;53.596;9.960;2022-12-11T02:37:22;100780.09;;;-1.42;nan
14343;BME280;7255;53.596;9.960;2022-12-11T02:39:52;100718.78;;;-1.44;nan
14343;BME280;7255;53.596;9.960;2022-12-11T02:42:20;100787.75;;;-1.21;nan
14343;BME280;7255;53.596;9.960;2022-12-11T02:44:50;100790.03;;;-1.36;nan
14343;BME280;7255;53.596;9.960;2022-12-11T02:47:18;100756.47;;;-1.34;nan
14343;BME280;7255;53.596;9.960;2022-12-11T02:49:48;100782.44;;;-1.11;nan
14343;BME280;7255;53.596;9.960;2022-12-11T02:52:18;100768.87;;;-1.17;nan
14343;BME280;7255;53.596;9.960;2022-12-11T02:54:46;100745.22;;;-1.08;nan
14343;BME280;7255;53.596;9.960;2022-12-11T02:57:16;100768.59;;;-1.13;nan
14343;BME280;7255;53.596;9.960;2022-12-11T02:59:45;100784.41;;;-1.13;nan
14343;BME280;7255;53.596;9.960;2022-12-11T03:02:14;100783.03;;;-1.18;nan
14343;BME280;7255;53.596;9.960;2022-12-11T03:04:43;100784.09;;;-1.10;nan
14343;BME280;7255;53.596;9.960;2022-12-11T03:07:14;100779.13;;;-1.13;nan
14343;BME280;7255;53.596;9.960;2022-12-11T03:09:45;100752.78;;;-1.13;nan
14343;BME280;7255;53.596;9.960;2022-12-11T03:12:14;100776.94;;;-1.18;nan
14343;BME280;7255;53.596;9.960;2022-12-11T03:14:42;100777.19;;;-1.11;nan
14343;BME280;7255;53.596;9.960;2022-12-11T03:17:15;100777.19;;;-1.11;nan
14343;BME280;7255;53.596;9.960;2022-12-11T03:19:47;100776.03;;;-1.09;nan
14343;BME280;7255;53.596;9.960;2022-12-11T03:22:18;100783.81;;;-1.07;nan
14343;BME280;7255;53.596;9.960;2022-12-11T03:24:50;100773.53;;;-1.10;nan
14343;BME280;7255;53.596;9.960;2022-12-11T03:27:21;100773.25;;;-1.07;nan
14343;BME280;7255;53.596;9.960;2022-12-11T03:29:53;100730.59;;;-1.21;nan
14343;BME280;7255;53.596;9.960;2022-12-11T03:32:25;100770.31;;;-1.32;nan
14343;BME280;7255;53.596;9.960;2022-12-11T03:34:57;100778.72;;;-1.46;nan
14343;BME280;7255;53.596;9.960;2022-12-11T03:37:28;100780.97;;;-1.51;nan
14343;BME280;7255;53.596;9.960;2022-12-11T03:40:02;100767.38;;;-1.57;nan
14343;BME280;7255;53.596;9.960;2022-12-11T03:42:30;100764.00;;;-1.39;nan
14343;BME280;7255;53.596;9.960;2022-12-11T03:44:58;100725.41;;;-1.40;nan
14343;BME280;7255;53.596;9.960;2022-12-11T03:47:27;100762.94;;;-1.56;nan
14343;BME280;7255;53.596;9.960;2022-12-11T03:49:57;100755.75;;;-1.64;nan
14343;BME280;7255;53.596;9.960;2022-12-11T03:52:26;100751.34;;;-1.73;nan
14343;BME280;7255;53.596;9.960;2022-12-11T03:54:53;100758.75;;;-1.49;nan
14343;BME280;7255;53.596;9.960;2022-12-11T03:57:25;100760.22;;;-1.64;nan
14343;BME280;7255;53.596;9.960;2022-12-11T03:59:53;100759.91;;;-1.61;nan
14343;BME280;7255;53.596;9.960;2022-12-11T04:02:20;100765.69;;;-1.48;nan
14343;BME280;7255;53.596;9.960;2022-12-11T04:04:47;100760.97;;;-1.44;nan
14343;BME280;7255;53.596;9.960;2022-12-11T04:07:14;100759.78;;;-1.32;nan
14343;BME280;7255;53.596;9.960;2022-12-11T04:09:40;100766.78;;;-1.41;nan
14343;BME280;7255;53.596;9.960;2022-12-11T04:12:06;100760.66;;;-1.41;nan
14343;BME280;7255;53.596;9.960;2022-12-11T04:14:33;100775.31;;;-1.29;nan
14343;BME280;7255;53.596;9.960;2022-12-11T04:17:17;100761.72;;;-1.34;nan
14343;BME280;7255;53.596;9.960;2022-12-11T04:19:58;100766.37;;;-1.18;nan
14343;BME280;7255;53.596;9.960;2022-12-11T04:22:42;100757.53;;;-1.27;nan
14343;BME280;7255;53.596;9.960;2022-12-11T04:25:26;100770.97;;;-1.58;nan
14343;BME280;7255;53.596;9.960;2022-12-11T04:27:53;100756.78;;;-1.37;nan
14343;BME280;7255;53.596;9.960;2022-12-11T04:30:21;100762.53;;;-1.24;nan
14343;BME280;7255;53.596;9.960;2022-12-11T04:32:48;100753.94;;;-1.26;nan
14343;BME280;7255;53.596;9.960;2022-12-11T04:35:15;100757.25;;;-1.24;nan
14343;BME280;7255;53.596;9.960;2022-12-11T04:37:42;100744.56;;;-1.38;nan
14343;BME280;7255;53.596;9.960;2022-12-11T04:40:11;100746.88;;;-1.63;nan
14343;BME280;7255;53.596;9.960;2022-12-11T04:42:38;100747.12;;;-1.56;nan
14343;BME280;7255;53.596;9.960;2022-12-11T04:45:05;100753.44;;;-1.39;nan
14343;BME280;7255;53.596;9.960;2022-12-11T04:47:33;100758.41;;;-1.36;nan
14343;BME280;7255;53.596;9.960;2022-12-11T04:50:00;100763.75;;;-1.46;nan
14343;BME280;7255;53.596;9.960;2022-12-11T04:52:27;100752.97;;;-1.62;nan
14343;BME280;7255;53.596;9.960;2022-12-11T04:54:54;100686.16;;;-1.71;nan
14343;BME280;7255;53.596;9.960;2022-12-11T04:57:20;100757.09;;;-1.50;nan
14343;BME280;7255;53.596;9.960;2022-12-11T04:59:47;100761.72;;;-1.34;nan
14343;BME280;7255;53.596;9.960;2022-12-11T05:02:13;100744.59;;;-1.48;nan
14343;BME280;7255;53.596;9.960;2022-12-11T05:04:41;100753.44;;;-1.39;nan
14343;BME280;7255;53.596;9.960;2022-12-11T05:07:09;100750.09;;;-1.41;nan
14343;BME280;7255;53.596;9.960;2022-12-11T05:09:36;100741.72;;;-1.27;nan
14343;BME280;7255;53.596;9.960;2022-12-11T05:12:03;100754.22;;;-1.29;nan
14343;BME280;7255;53.596;9.960;2022-12-11T05:14:29;100762.25;;;-1.30;nan
14343;BME280;7255;53.596;9.960;2022-12-11T05:16:56;100751.69;;;-1.21;nan
14343;BME280;7255;53.596;9.960;2022-12-11T05:19:22;100766.72;;;-1.31;nan
14343;BME280;7255;53.596;9.960;2022-12-11T05:21:49;100767.25;;;-1.27;nan
14343;BME280;7255;53.596;9.960;2022-12-11T05:24:15;100765.84;;;-1.22;nan
14343;BME280;7255;53.596;9.960;2022-12-11T05:26:43;100762.47;;;-1.14;nan
14343;BME280;7255;53.596;9.960;2022-12-11T05:29:09;100768.25;;;-1.01;nan
14343;BME280;7255;53.596;9.960;2022-12-11T05:31:36;100768.00;;;-1.07;nan
14343;BME280;7255;53.596;9.960;2022-12-11T05:34:02;100763.53;;;-1.07;nan
14343;BME280;7255;53.596;9.960;2022-12-11T05:36:31;100762.44;;;-1.04;nan
14343;BME280;7255;53.596;9.960;2022-12-11T05:38:58;100765.75;;;-1.02;nan
14343;BME280;7255;53.596;9.960;2022-12-11T05:41:26;100774.88;;;-0.97;nan
14343;BME280;7255;53.596;9.960;2022-12-11T05:43:54;100767.34;;;-0.91;nan
14343;BME280;7255;53.596;9.960;2022-12-11T05:46:23;100766.63;;;-1.11;nan
14343;BME280;7255;53.596;9.960;2022-12-11T05:48:51;100779.13;;;-1.13;nan
14343;BME280;7255;53.596;9.960;2022-12-11T05:51:19;100770.22;;;-1.12;nan
14343;BME280;7255;53.596;9.960;2022-12-11T05:53:47;100768.00;;;-1.07;nan
14343;BME280;7255;53.596;9.960;2022-12-11T05:56:15;100767.25;;;-1.27;nan
14343;BME280;7255;53.596;9.960;2022-12-11T05:58:45;100759.78;;;-1.32;nan
14343;BME280;7255;53.596;9.960;2022-12-11T06:01:15;100765.34;;;-1.35;nan
14343;BME280;7255;53.596;9.960;2022-12-11T06:03:42;100753.84;;;-1.71;nan
14343;BME280;7255;53.596;9.960;2022-12-11T06:06:09;100745.44;;;-1.47;nan
14343;BME280;7255;53.596;9.960;2022-12-11T06:08:35;100754.28;;;-1.39;nan
14343;BME280;7255;53.596;9.960;2022-12-11T06:11:02;100752.84;;;-1.33;nan
14343;BME280;7255;53.596;9.960;2022-12-11T06:13:29;100711.50;;;-1.32;nan
14343;BME280;7255;53.596;9.960;2022-12-11T06:15:59;100744.28;;;-1.35;nan
14343;BME280;7255;53.596;9.960;2022-12-11T06:18:26;100717.03;;;-1.26;nan
14343;BME280;7255;53.596;9.960;2022-12-11T06:20:53;100741.84;;;-1.46;nan
14343;BME280;7255;53.596;9.960;2022-12-11T06:23:19;100742.97;;;-1.59;nan
14343;BME280;7255;53.596;9.960;2022-12-11T06:25:45;100747.66;;;-1.52;nan
14343;BME280;7255;53.596;9.960;2022-12-11T06:28:12;100747.38;;;-1.49;nan
14343;BME280;7255;53.596;9.960;2022-12-11T06:30:38;100739.94;;;-1.64;nan
14343;BME280;7255;53.596;9.960;2022-12-11T06:33:05;100740.81;;;-1.73;nan
14343;BME280;7255;53.596;9.960;2022-12-11T06:35:33;100735.28;;;-1.80;nan
14343;BME280;7255;53.596;9.960;2022-12-11T06:37:59;100716.78;;;-1.98;nan
14343;BME280;7255;53.596;9.960;2022-12-11T06:40:26;100802.75;;;-2.16;nan
14343;BME280;7255;53.596;9.960;2022-12-11T06:42:52;100708.25;;;-2.19;nan
14343;BME280;7255;53.596;9.960;2022-12-11T06:45:19;100718.75;;;-2.29;nan
14343;BME280;7255;53.596;9.960;2022-12-11T06:47:45;100719.34;;;-2.45;nan
14343;BME280;7255;53.596;9.960;2022-12-11T06:50:12;100711.63;;;-2.56;nan
14343;BME280;7255;53.596;9.960;2022-12-11T06:52:39;100700.25;;;-2.66;nan
14343;BME280;7255;53.596;9.960;2022-12-11T06:55:06;100698.31;;;-2.74;nan
14343;BME280;7255;53.596;9.960;2022-12-11T06:57:33;100695.28;;;-2.79;nan
14343;BME280;7255;53.596;9.960;2022-12-11T06:59:59;100686.41;;;-2.88;nan
14343;BME280;7255;53.596;9.960;2022-12-11T07:02:25;100686.97;;;-2.94;nan
14343;BME280;7255;53.596;9.960;2022-12-11T07:04:52;100701.91;;;-3.04;nan
14343;BME280;7255;53.596;9.960;2022-12-11T07:07:18;100700.78;;;-3.12;nan
14343;BME280;7255;53.596;9.960;2022-12-11T07:09:46;100693.88;;;-3.13;nan
14343;BME280;7255;53.596;9.960;2022-12-11T07:12:12;100702.72;;;-3.14;nan
14343;BME280;7255;53.596;9.960;2022-12-11T07:14:38;100706.84;;;-3.21;nan
14343;BME280;7255;53.596;9.960;2022-12-11T07:17:05;100702.16;;;-3.27;nan
14343;BME280;7255;53.596;9.960;2022-12-11T07:19:31;100697.44;;;-3.33;nan
14343;BME280;7255;53.596;9.960;2022-12-11T07:21:58;100699.09;;;-3.32;nan
14343;BME280;7255;53.596;9.960;2022-12-11T07:24:24;100697.41;;;-3.43;nan
14343;BME280;7255;53.596;9.960;2022-12-11T07:26:52;100685.25;;;-3.44;nan
14343;BME280;7255;53.596;9.960;2022-12-11T07:29:18;100698.50;;;-3.45;nan
14343;BME280;7255;53.596;9.960;2022-12-11T07:31:45;100695.19;;;-3.47;nan
14343;BME280;7255;53.596;9.960;2022-12-11T07:34:11;100701.56;;;-3.40;nan
14343;BME280;7255;53.596;9.960;2022-12-11T07:36:38;100704.84;;;-3.48;nan
14343;BME280;7255;53.596;9.960;2022-12-11T07:39:05;100698.75;;;-3.49;nan
14343;BME280;7255;53.596;9.960;2022-12-11T07:41:33;100705.97;;;-3.51;nan
14343;BME280;7255;53.596;9.960;2022-12-11T07:44:01;100710.66;;;-3.44;nan
14343;BME280;7255;53.596;9.960;2022-12-11T07:46:29;100711.78;;;-3.47;nan
14343;BME280;7255;53.596;9.960;2022-12-11T07:48:56;100704.56;;;-3.55;nan
14343;BME280;7255;53.596;9.960;2022-12-11T07:51:25;100707.56;;;-3.59;nan
14343;BME280;7255;53.596;9.960;2022-12-11T07:53:54;100680.78;;;-3.53;nan
14343;BME280;7255;53.596;9.960;2022-12-11T07:56:20;100706.22;;;-3.54;nan
14343;BME280;7255;53.596;9.960;2022-12-11T07:58:47;100691.81;;;-3.59;nan
14343;BME280;7255;53.596;9.960;2022-12-11T08:01:16;100700.38;;;-3.57;nan
14343;BME280;7255;53.596;9.960;2022-12-11T08:03:43;100712.03;;;-3.50;nan
14343;BME280;7255;53.596;9.960;2022-12-11T08:06:10;100708.72;;;-3.52;nan
14343;BME280;7255;53.596;9.960;2022-12-11T08:08:36;100703.75;;;-3.55;nan
14343;BME280;7255;53.596;9.960;2022-12-11T08:11:04;100699.88;;;-3.51;nan
14343;BME280;7255;53.596;9.960;2022-12-11T08:13:31;100709.56;;;-3.52;nan
14343;BME280;7255;53.596;9.960;2022-12-11T08:15:58;100681.06;;;-3.46;nan
14343;BME280;7255;53.596;9.960;2022-12-11T08:18:29;100689.94;;;-3.47;nan
14343;BME280;7255;53.596;9.960;2022-12-11T08:20:55;100694.09;;;-3.35;nan
14343;BME280;7255;53.596;9.960;2022-12-11T08:23:21;100700.16;;;-3.44;nan
14343;BME280;7255;53.596;9.960;2022-12-11T08:25:48;100686.06;;;-3.43;nan
14343;BME280;7255;53.596;9.960;2022-12-11T08:28:14;100689.94;;;-3.38;nan
14343;BME280;7255;53.596;9.960;2022-12-11T08:30:40;100695.19;;;-3.38;nan
14343;BME280;7255;53.596;9.960;2022-12-11T08:33:06;100706.03;;;-3.31;nan
14343;BME280;7255;53.596;9.960;2022-12-11T08:35:37;100706.03;;;-3.31;nan
14343;BME280;7255;53.596;9.960;2022-12-11T08:38:03;100706.84;;;-3.31;nan
14343;BME280;7255;53.596;9.960;2022-12-11T08:40:29;100716.53;;;-3.21;nan
14343;BME280;7255;53.596;9.960;2022-12-11T08:42:56;100710.47;;;-3.12;nan
14343;BME280;7255;53.596;9.960;2022-12-11T08:45:22;100710.78;;;-3.05;nan
14343;BME280;7255;53.596;9.960;2022-12-11T08:47:48;100714.66;;;-3.00;nan
14343;BME280;7255;53.596;9.960;2022-12-11T08:50:15;100727.91;;;-3.01;nan
14343;BME280;7255;53.596;9.960;2022-12-11T08:52:42;100711.03;;;-3.08;nan
14343;BME280;7255;53.596;9.960;2022-12-11T08:55:09;100715.16;;;-3.06;nan
14343;BME280;7255;53.596;9.960;2022-12-11T08:57:35;100703.00;;;-2.97;nan
14343;BME280;7255;53.596;9.960;2022-12-11T09:00:04;100723.50;;;-3.01;nan
14343;BME280;7255;53.596;9.960;2022-12-11T09:02:31;100716.59;;;-2.92;nan
14343;BME280;7255;53.596;9.960;2022-12-11T09:04:57;100712.72;;;-2.98;nan
14343;BME280;7255;53.596;9.960;2022-12-11T09:07:24;100714.09;;;-2.94;nan
14343;BME280;7255;53.596;9.960;2022-12-11T09:09:53;100697.75;;;-2.97;nan
14343;BME280;7255;53.596;9.960;2022-12-11T09:12:19;100701.91;;;-2.85;nan
14343;BME280;7255;53.596;9.960;2022-12-11T09:14:45;100740.41;;;-2.84;nan
14343;BME280;7255;53.596;9.960;2022-12-11T09:17:12;100742.34;;;-2.76;nan
14343;BME280;7255;53.596;9.960;2022-12-11T09:19:38;100707.72;;;-2.72;nan
14343;BME280;7255;53.596;9.960;2022-12-11T09:22:04;100705.22;;;-2.73;nan
14343;BME280;7255;53.596;9.960;2022-12-11T09:24:30;100708.28;;;-2.68;nan
14343;BME280;7255;53.596;9.960;2022-12-11T09:26:58;100716.31;;;-2.69;nan
14343;BME280;7255;53.596;9.960;2022-12-11T09:29:24;100721.84;;;-2.53;nan
14343;BME280;7255;53.596;9.960;2022-12-11T09:31:51;100729.34;;;-2.48;nan
14343;BME280;7255;53.596;9.960;2022-12-11T09:34:17;100714.09;;;-2.45;nan
14343;BME280;7255;53.596;9.960;2022-12-11T09:36:44;100726.81;;;-2.30;nan
14343;BME280;7255;53.596;9.960;2022-12-11T09:39:12;100711.59;;;-2.27;nan
14343;BME280;7255;53.596;9.960;2022-12-11T09:41:45;100723.50;;;-2.23;nan
14343;BME280;7255;53.596;9.960;2022-12-11T09:44:38;100724.31;;;-2.22;nan
14343;BME280;7255;53.596;9.960;2022-12-11T09:47:19;100716.56;;;-2.14;nan
14343;BME280;7255;53.596;9.960;2022-12-11T09:49:49;100631.44;;;-2.05;nan
14343;BME280;7255;53.596;9.960;2022-12-11T09:52:18;100709.03;;;-2.09;nan
14343;BME280;7255;53.596;9.960;2022-12-11T09:54:48;100716.78;;;-1.98;nan
14343;BME280;7255;53.596;9.960;2022-12-11T09:57:36;100718.69;;;-2.00;nan
14343;BME280;7255;53.596;9.960;2022-12-11T10:00:16;100711.22;;;-1.95;nan
14343;BME280;7255;53.596;9.960;2022-12-11T10:02:56;100720.91;;;-1.95;nan
14343;BME280;7255;53.596;9.960;2022-12-11T10:05:30;100723.66;;;-1.87;nan
14343;BME280;7255;53.596;9.960;2022-12-11T10:08:07;100715.94;;;-1.88;nan
14343;BME280;7255;53.596;9.960;2022-12-11T10:10:42;100666.25;;;-1.83;nan
14343;BME280;7255;53.596;9.960;2022-12-11T10:13:17;100741.09;;;-1.76;nan
14343;BME280;7255;53.596;9.960;2022-12-11T10:15:54;100729.41;;;-1.64;nan
14343;BME280;7255;53.596;9.960;2022-12-11T10:18:25;100744.94;;;-1.61;nan
14343;BME280;7255;53.596;9.960;2022-12-11T10:20:53;100731.91;;;-1.62;nan
14343;BME280;7255;53.596;9.960;2022-12-11T10:23:24;100743.78;;;-1.48;nan
14343;BME280;7255;53.596;9.960;2022-12-11T10:25:57;100695.75;;;-1.42;nan
14343;BME280;7255;53.596;9.960;2022-12-11T10:28:28;100729.53;;;-1.28;nan
14343;BME280;7255;53.596;9.960;2022-12-11T10:31:00;100733.38;;;-1.22;nan
14343;BME280;7255;53.596;9.960;2022-12-11T10:33:33;100727.56;;;-1.26;nan
14343;BME280;7255;53.596;9.960;2022-12-11T10:36:06;100719.25;;;-1.31;nan
14343;BME280;7255;53.596;9.960;2022-12-11T10:38:37;100723.72;;;-1.31;nan
14343;BME280;7255;53.596;9.960;2022-12-11T10:41:10;100717.59;;;-1.32;nan
14343;BME280;7255;53.596;9.960;2022-12-11T10:43:38;100713.72;;;-1.28;nan
14343;BME280;7255;53.596;9.960;2022-12-11T10:46:14;100724.47;;;-1.21;nan
14343;BME280;7255;53.596;9.960;2022-12-11T10:48:44;100723.53;;;-1.02;nan
14343;BME280;7255;53.596;9.960;2022-12-11T10:51:11;100735.44;;;-0.98;nan
14343;BME280;7255;53.596;9.960;2022-12-11T10:53:37;100738.16;;;-0.90;nan
14343;BME280;7255;53.596;9.960;2022-12-11T10:56:05;100733.72;;;-0.89;nan
14343;BME280;7255;53.596;9.960;2022-12-11T10:58:32;100730.09;;;-0.88;nan
14343;BME280;7255;53.596;9.960;2022-12-11T11:01:10;100732.88;;;-0.90;nan
14343;BME280;7255;53.596;9.960;2022-12-11T11:03:51;100737.50;;;-0.74;nan
14343;BME280;7255;53.596;9.960;2022-12-11T11:06:20;100728.91;;;-0.76;nan
14343;BME280;7255;53.596;9.960;2022-12-11T11:08:49;100722.47;;;-0.73;nan
14343;BME280;7255;53.596;9.960;2022-12-11T11:11:26;100738.09;;;-0.80;nan
14343;BME280;7255;53.596;9.960;2022-12-11T11:14:05;100716.75;;;-0.87;nan
14343;BME280;7255;53.596;9.960;2022-12-11T11:16:35;100722.56;;;-0.83;nan
14343;BME280;7255;53.596;9.960;2022-12-11T11:19:03;100722.56;;;-0.83;nan
14343;BME280;7255;53.596;9.960;2022-12-11T11:21:29;100737.25;;;-0.81;nan
14343;BME280;7255;53.596;9.960;2022-12-11T11:23:56;100700.09;;;-0.87;nan
14343;BME280;7255;53.596;9.960;2022-12-11T11:26:22;100732.31;;;-0.84;nan
14343;BME280;7255;53.596;9.960;2022-12-11T11:28:51;100731.69;;;-0.78;nan
14343;BME280;7255;53.596;9.960;2022-12-11T11:31:20;100720.84;;;-0.74;nan
14343;BME280;7255;53.596;9.960;2022-12-11T11:33:53;100736.06;;;-0.68;nan
14343;BME280;7255;53.596;9.960;2022-12-11T11:36:22;100713.50;;;-0.63;nan
14343;BME280;7255;53.596;9.960;2022-12-11T11:39:02;100716.62;;;-0.67;nan
14343;BME280;7255;53.596;9.960;2022-12-11T11:41:39;100716.09;;;-0.71;nan
14343;BME280;7255;53.596;9.960;2022-12-11T11:44:11;100713.31;;;-0.69;nan
14343;BME280;7255;53.596;9.960;2022-12-11T11:46:43;100709.38;;;-0.65;nan
14343;BME280;7255;53.596;9.960;2022-12-11T11:49:17;100710.19;;;-0.65;nan
14343;BME280;7255;53.596;9.960;2022-12-11T11:51:48;100705.25;;;-0.68;nan
14343;BME280;7255;53.596;9.960;2022-12-11T11:54:24;100746.56;;;-0.59;nan
14343;BME280;7255;53.596;9.960;2022-12-11T11:56:55;100682.28;;;-0.49;nan
14343;BME280;7255;53.596;9.960;2022-12-11T11:59:24;100698.66;;;-0.46;nan
14343;BME280;7255;53.596;9.960;2022-12-11T12:01:54;100690.78;;;-0.37;nan
14343;BME280;7255;53.596;9.960;2022-12-11T12:04:23;100693.81;;;-0.32;nan
14343;BME280;7255;53.596;9.960;2022-12-11T12:07:08;100704.06;;;-0.29;nan
14343;BME280;7255;53.596;9.960;2022-12-11T12:09:43;100702.09;;;-0.27;nan
14343;BME280;7255;53.596;9.960;2022-12-11T12:12:16;100720.09;;;-0.23;nan
14343;BME280;7255;53.596;9.960;2022-12-11T12:14:57;100705.94;;;-0.22;nan
14343;BME280;7255;53.596;9.960;2022-12-11T12:17:31;100677.72;;;-0.13;nan
14343;BME280;7255;53.596;9.960;2022-12-11T12:20:11;100703.53;;;-0.07;nan
14343;BME280;7255;53.596;9.960;2022-12-11T12:25:38;100718.34;;;-0.14;nan
14343;BME280;7255;53.596;9.960;2022-12-11T12:28:15;100709.13;;;-0.10;nan
14343;BME280;7255;53.596;9.960;2022-12-11T12:30:51;100712.44;;;-0.08;nan
14343;BME280;7255;53.596;9.960;2022-12-11T12:33:29;100711.09;;;-0.12;nan
14343;BME280;7255;53.596;9.960;2022-12-11T12:36:05;100728.28;;;-0.08;nan
14343;BME280;7255;53.596;9.960;2022-12-11T12:38:43;100722.59;;;-0.21;nan
14343;BME280;7255;53.596;9.960;2022-12-11T12:41:16;100712.53;;;-0.17;nan
14343;BME280;7255;53.596;9.960;2022-12-11T12:44:00;100699.06;;;-0.06;nan
14343;BME280;7255;53.596;9.960;2022-12-11T12:46:40;100720.44;;;0.01;nan
14343;BME280;7255;53.596;9.960;2022-12-11T12:49:11;100715.03;;;-0.16;nan
14343;BME280;7255;53.596;9.960;2022-12-11T12:51:41;100707.91;;;-0.24;nan
14343;BME280;7255;53.596;9.960;2022-12-11T12:54:11;100778.19;;;-0.23;nan
14343;BME280;7255;53.596;9.960;2022-12-11T12:56:40;100716.69;;;-0.15;nan
14343;BME280;7255;53.596;9.960;2022-12-11T12:59:18;100793.66;;;-0.10;nan
14343;BME280;7255;53.596;9.960;2022-12-11T13:01:46;100709.03;;;0.00;nan
14343;BME280;7255;53.596;9.960;2022-12-11T13:04:28;100709.03;;;0.00;nan
14343;BME280;7255;53.596;9.960;2022-12-11T13:06:57;100638.03;;;0.05;nan
14343;BME280;7255;53.596;9.960;2022-12-11T13:09:24;100710.56;;;0.11;nan
14343;BME280;7255;53.596;9.960;2022-12-11T13:11:54;100644.34;;;0.12;nan
14343;BME280;7255;53.596;9.960;2022-12-11T13:14:27;100717.41;;;-0.05;nan
14343;BME280;7255;53.596;9.960;2022-12-11T13:17:07;100715.84;;;0.11;nan
14343;BME280;7255;53.596;9.960;2022-12-11T13:19:48;100717.91;;;0.25;nan
14343;BME280;7255;53.596;9.960;2022-12-11T13:22:23;100711.59;;;0.18;nan
14343;BME280;7255;53.596;9.960;2022-12-11T13:24:57;100719.47;;;0.36;nan
14343;BME280;7255;53.596;9.960;2022-12-11T13:27:36;100724.81;;;0.52;nan
14343;BME280;7255;53.596;9.960;2022-12-11T13:30:05;100728.50;;;0.68;nan
14343;BME280;7255;53.596;9.960;2022-12-11T13:32:32;100736.47;;;0.76;nan
14343;BME280;7255;53.596;9.960;2022-12-11T13:35:03;100749.25;;;0.81;nan
14343;BME280;7255;53.596;9.960;2022-12-11T13:37:33;100751.19;;;0.79;nan